createdAt,value
2022-09-15T00:01:20.561Z,11.14
2022-09-15T00:03:48.915Z,11.15
2022-09-15T00:06:17.613Z,11.12
2022-09-15T00:08:45.346Z,11.14
2022-09-15T00:11:27.113Z,11.22
2022-09-15T00:13:56.347Z,11.22
2022-09-15T00:16:26.620Z,11.22
2022-09-15T00:18:54.763Z,11.19
2022-09-15T00:21:26.372Z,11.21
2022-09-15T00:23:55.068Z,11.16
2022-09-15T00:26:25.841Z,11.16
2022-09-15T00:28:54.584Z,11.16
2022-09-15T00:31:24.839Z,11.24
2022-09-15T00:33:56.865Z,11.26
2022-09-15T00:36:26.776Z,11.31
2022-09-15T00:38:56.689Z,11.36
2022-09-15T00:41:25.328Z,11.41
2022-09-15T00:43:57.822Z,11.44
2022-09-15T00:46:30.296Z,11.46
2022-09-15T00:49:09.701Z,11.49
2022-09-15T00:51:45.570Z,11.52
2022-09-15T00:54:19.192Z,11.55
2022-09-15T00:56:50.820Z,11.56
2022-09-15T00:59:24.848Z,11.57
2022-09-15T01:02:12.188Z,11.60
2022-09-15T01:04:40.095Z,11.61
2022-09-15T01:07:13.117Z,11.62
2022-09-15T01:09:52.696Z,11.62
2022-09-15T01:12:22.542Z,11.60
2022-09-15T01:14:50.425Z,11.62
2022-09-15T01:17:38.100Z,11.64
2022-09-15T01:20:34.189Z,11.63
2022-09-15T01:23:39.675Z,11.62
2022-09-15T01:26:29.283Z,11.63
2022-09-15T01:29:21.742Z,11.64
2022-09-15T01:32:21.603Z,11.66
2022-09-15T01:35:03.347Z,11.64
2022-09-15T01:37:40.159Z,11.70
2022-09-15T01:40:10.756Z,11.69
2022-09-15T01:42:41.044Z,11.72
2022-09-15T01:45:16.536Z,11.71
2022-09-15T01:47:47.943Z,11.73
2022-09-15T01:50:20.918Z,11.74
2022-09-15T01:52:53.818Z,11.76
2022-09-15T01:55:27.910Z,11.75
2022-09-15T01:57:55.722Z,11.74
2022-09-15T02:00:23.732Z,11.78
2022-09-15T02:03:05.709Z,11.79
2022-09-15T02:05:41.206Z,11.80
2022-09-15T02:08:27.852Z,11.83
2022-09-15T02:11:12.931Z,11.85
2022-09-15T02:13:52.420Z,11.85
2022-09-15T02:16:28.343Z,11.84
2022-09-15T02:19:12.204Z,11.88
2022-09-15T02:22:27.936Z,11.86
2022-09-15T02:25:11.374Z,11.86
2022-09-15T02:27:46.764Z,11.88
2022-09-15T02:30:16.951Z,11.88
2022-09-15T02:32:56.173Z,11.90
2022-09-15T02:35:26.973Z,11.90
2022-09-15T02:37:56.574Z,11.93
2022-09-15T02:40:24.752Z,11.92
2022-09-15T02:42:58.426Z,11.93
2022-09-15T02:45:27.010Z,11.91
2022-09-15T02:47:54.818Z,11.94
2022-09-15T02:50:22.676Z,11.97
2022-09-15T02:52:50.248Z,11.99
2022-09-15T02:55:18.582Z,11.99
2022-09-15T02:57:46.638Z,12.05
2022-09-15T03:00:16.826Z,12.08
2022-09-15T03:02:50.542Z,12.14
2022-09-15T03:05:21.524Z,12.09
2022-09-15T03:07:49.822Z,12.05
2022-09-15T03:10:18.510Z,12.04
2022-09-15T03:12:49.485Z,12.04
2022-09-15T03:15:19.870Z,12.04
2022-09-15T03:17:48.574Z,12.06
2022-09-15T03:20:21.456Z,12.05
2022-09-15T03:22:50.044Z,12.03
2022-09-15T03:25:18.588Z,12.00
2022-09-15T03:27:47.123Z,12.00
2022-09-15T03:30:15.614Z,11.95
2022-09-15T03:32:43.408Z,11.95
2022-09-15T03:35:11.769Z,11.89
2022-09-15T03:37:39.646Z,11.83
2022-09-15T03:40:08.124Z,11.76
2022-09-15T03:42:36.317Z,11.74
2022-09-15T03:45:05.054Z,11.68
2022-09-15T03:47:33.385Z,11.67
2022-09-15T03:50:01.377Z,11.68
2022-09-15T03:52:32.340Z,11.62
2022-09-15T03:55:00.250Z,11.66
2022-09-15T03:57:28.364Z,11.69
2022-09-15T03:59:56.404Z,11.63
2022-09-15T04:02:24.501Z,11.64
2022-09-15T04:04:52.738Z,11.62
2022-09-15T04:07:20.867Z,11.59
2022-09-15T04:09:48.802Z,11.63
2022-09-15T04:12:16.823Z,11.63
2022-09-15T04:14:45.833Z,11.64
2022-09-15T04:17:15.547Z,11.60
2022-09-15T04:19:43.486Z,11.57
2022-09-15T04:22:15.558Z,11.58
2022-09-15T04:24:48.099Z,11.61
2022-09-15T04:27:17.124Z,11.56
2022-09-15T04:29:45.035Z,11.58
2022-09-15T04:32:13.065Z,11.59
2022-09-15T04:34:41.600Z,11.64
2022-09-15T04:37:10.248Z,11.59
2022-09-15T04:39:38.912Z,11.60
2022-09-15T04:42:07.871Z,11.62
2022-09-15T04:44:36.235Z,11.70
2022-09-15T04:47:04.372Z,11.65
2022-09-15T04:49:32.591Z,11.66
2022-09-15T04:52:00.856Z,11.71
2022-09-15T04:54:28.880Z,11.69
2022-09-15T04:56:56.790Z,11.71
2022-09-15T04:59:24.446Z,11.70
2022-09-15T05:01:55.509Z,11.70
2022-09-15T05:04:23.422Z,11.61
2022-09-15T05:06:51.133Z,11.64
2022-09-15T05:09:19.384Z,11.65
2022-09-15T05:11:47.436Z,11.64
2022-09-15T05:14:15.114Z,11.69
2022-09-15T05:16:42.815Z,11.75
2022-09-15T05:19:11.480Z,11.78
2022-09-15T05:21:39.346Z,11.84
2022-09-15T05:24:07.353Z,11.81
2022-09-15T05:26:35.488Z,11.83
2022-09-15T05:29:03.311Z,11.78
2022-09-15T05:31:36.286Z,11.74
2022-09-15T05:34:05.717Z,11.70
2022-09-15T05:36:34.428Z,11.70
2022-09-15T05:39:02.349Z,11.75
2022-09-15T05:41:30.544Z,11.85
2022-09-15T05:43:59.304Z,11.94
2022-09-15T05:46:29.302Z,12.08
2022-09-15T05:48:59.009Z,12.14
2022-09-15T05:51:27.218Z,12.12
2022-09-15T05:53:55.284Z,12.10
2022-09-15T05:56:23.108Z,11.97
2022-09-15T05:58:50.974Z,11.89
2022-09-15T06:01:24.498Z,11.94
2022-09-15T06:03:53.028Z,12.15
2022-09-15T06:06:22.458Z,12.28
2022-09-15T06:08:58.633Z,12.32
2022-09-15T06:11:29.817Z,12.46
2022-09-15T06:14:03.798Z,12.52
2022-09-15T06:16:34.299Z,12.90
2022-09-15T06:19:03.579Z,12.72
2022-09-15T06:21:32.816Z,12.56
2022-09-15T06:24:07.198Z,12.43
2022-09-15T06:26:35.272Z,12.27
2022-09-15T06:29:05.263Z,12.17
2022-09-15T06:31:34.345Z,12.18
2022-09-15T06:34:04.138Z,12.09
2022-09-15T06:36:32.466Z,12.08
2022-09-15T06:39:00.660Z,12.08
2022-09-15T06:41:38.217Z,12.08
2022-09-15T06:44:15.425Z,12.13
2022-09-15T06:46:43.172Z,12.13
2022-09-15T06:49:11.410Z,12.17
2022-09-15T06:51:39.284Z,12.08
2022-09-15T06:54:08.022Z,12.07
2022-09-15T06:56:38.302Z,12.07
2022-09-15T06:59:06.757Z,12.01
2022-09-15T07:01:34.458Z,12.01
2022-09-15T07:04:05.662Z,12.03
2022-09-15T07:06:34.530Z,11.96
2022-09-15T07:09:02.695Z,11.96
2022-09-15T07:11:31.730Z,11.97
2022-09-15T07:13:59.556Z,12.01
2022-09-15T07:16:27.485Z,12.01
2022-09-15T07:18:57.226Z,12.07
2022-09-15T07:21:25.343Z,12.15
2022-09-15T07:23:57.100Z,12.21
2022-09-15T07:26:28.286Z,12.37
2022-09-15T07:29:04.217Z,12.68
2022-09-15T07:31:33.929Z,12.69
2022-09-15T07:34:02.577Z,12.78
2022-09-15T07:36:32.001Z,12.88
2022-09-15T07:38:59.885Z,12.90
2022-09-15T07:41:30.069Z,12.89
2022-09-15T07:43:59.494Z,12.95
2022-09-15T07:46:31.280Z,13.01
2022-09-15T07:49:00.698Z,12.94
2022-09-15T07:51:28.825Z,12.85
2022-09-15T07:53:56.870Z,12.83
2022-09-15T07:56:25.111Z,12.67
2022-09-15T07:58:52.897Z,12.69
2022-09-15T08:01:22.592Z,12.70
2022-09-15T08:03:52.496Z,12.65
2022-09-15T08:06:23.961Z,12.68
2022-09-15T08:08:56.307Z,13.06
2022-09-15T08:11:27.316Z,13.07
2022-09-15T08:13:55.546Z,13.83
2022-09-15T08:16:24.928Z,14.83
2022-09-15T08:18:54.013Z,15.30
2022-09-15T08:21:23.638Z,15.76
2022-09-15T08:23:59.381Z,15.74
2022-09-15T08:26:28.186Z,15.55
2022-09-15T08:28:55.882Z,15.44
2022-09-15T08:31:25.150Z,15.26
2022-09-15T08:33:55.231Z,14.95
2022-09-15T08:36:27.759Z,14.78
2022-09-15T08:38:56.522Z,14.79
2022-09-15T08:41:32.587Z,14.60
2022-09-15T08:44:18.322Z,14.45
2022-09-15T08:47:17.509Z,14.56
2022-09-15T08:50:10.367Z,14.48
2022-09-15T08:52:42.945Z,14.37
2022-09-15T08:55:21.220Z,14.24
2022-09-15T08:57:52.356Z,14.15
2022-09-15T09:00:20.553Z,14.11
2022-09-15T09:03:06.831Z,13.98
2022-09-15T09:05:49.911Z,13.91
2022-09-15T09:08:45.437Z,13.97
2022-09-15T09:11:26.184Z,14.03
2022-09-15T09:14:07.418Z,13.95
2022-09-15T09:16:50.922Z,13.88
2022-09-15T09:19:49.936Z,13.99
2022-09-15T09:22:20.862Z,14.04
2022-09-15T09:24:52.564Z,14.20
2022-09-15T09:27:25.075Z,14.33
2022-09-15T09:30:04.518Z,14.51
2022-09-15T09:32:46.125Z,14.64
2022-09-15T09:35:23.060Z,14.79
2022-09-15T09:37:52.854Z,14.97
2022-09-15T09:40:21.506Z,15.05
2022-09-15T09:42:50.085Z,14.94
2022-09-15T09:45:19.666Z,14.90
2022-09-15T09:47:47.858Z,14.74
2022-09-15T09:50:43.621Z,14.96
2022-09-15T09:53:32.985Z,15.10
2022-09-15T09:56:15.839Z,14.93
2022-09-15T09:58:44.987Z,14.72
2022-09-15T10:01:16.481Z,14.63
2022-09-15T10:03:45.429Z,14.65
2022-09-15T10:06:15.793Z,14.68
2022-09-15T10:08:53.162Z,14.60
2022-09-15T10:11:22.751Z,14.66
2022-09-15T10:13:54.680Z,14.63
2022-09-15T10:16:23.012Z,14.67
2022-09-15T10:18:54.175Z,14.57
2022-09-15T10:21:24.618Z,14.64
2022-09-15T10:23:52.615Z,14.62
2022-09-15T10:26:29.944Z,14.60
2022-09-15T10:29:12.847Z,14.58
2022-09-15T10:31:41.737Z,14.55
2022-09-15T10:34:32.008Z,14.45
2022-09-15T10:37:08.383Z,14.36
2022-09-15T10:39:48.542Z,14.31
2022-09-15T10:42:16.421Z,14.28
2022-09-15T10:44:48.990Z,14.21
2022-09-15T10:47:29.825Z,14.19
2022-09-15T10:50:10.908Z,14.15
2022-09-15T10:53:19.770Z,14.12
2022-09-15T10:56:12.949Z,14.02
2022-09-15T10:59:01.069Z,14.05
2022-09-15T11:01:29.777Z,14.06
2022-09-15T11:04:35.397Z,14.01
2022-09-15T11:07:17.390Z,13.90
2022-09-15T11:09:57.050Z,13.65
2022-09-15T11:12:55.184Z,13.55
2022-09-15T11:15:37.815Z,13.50
2022-09-15T11:18:31.338Z,13.47
2022-09-15T11:21:14.819Z,13.57
2022-09-15T11:24:25.118Z,13.63
2022-09-15T11:27:11.966Z,13.58
2022-09-15T11:30:01.091Z,13.60
2022-09-15T11:32:57.317Z,13.54
2022-09-15T11:35:39.478Z,13.59
2022-09-15T11:38:38.568Z,13.72
2022-09-15T11:41:25.061Z,13.80
2022-09-15T11:44:29.817Z,13.77
2022-09-15T11:47:28.142Z,13.83
2022-09-15T11:49:56.447Z,13.79
2022-09-15T11:52:37.187Z,13.84
2022-09-15T11:55:23.442Z,13.90
2022-09-15T11:57:59.483Z,13.92
2022-09-15T12:00:28.576Z,13.92
2022-09-15T12:03:21.639Z,13.84
2022-09-15T12:06:15.890Z,13.82
2022-09-15T12:09:06.222Z,13.75
2022-09-15T12:11:43.112Z,13.77
2022-09-15T12:14:16.767Z,13.83
2022-09-15T12:16:45.240Z,13.92
2022-09-15T12:19:24.934Z,13.93
2022-09-15T12:22:04.790Z,13.94
2022-09-15T12:24:46.024Z,13.86
2022-09-15T12:27:16.883Z,13.86
2022-09-15T12:29:50.410Z,13.87
2022-09-15T12:32:29.603Z,13.89
2022-09-15T12:35:13.483Z,13.87
2022-09-15T12:37:46.310Z,13.94
2022-09-15T12:40:34.935Z,13.95
2022-09-15T12:43:12.662Z,13.88
2022-09-15T12:45:52.180Z,14.02
2022-09-15T12:48:29.223Z,14.19
2022-09-15T12:51:03.181Z,14.27
2022-09-15T12:56:10.467Z,14.09
2022-09-15T12:58:46.520Z,14.00
2022-09-15T13:01:23.550Z,13.95
2022-09-15T13:03:53.903Z,13.95
2022-09-15T13:06:29.478Z,13.97
2022-09-15T13:09:06.288Z,13.90
2022-09-15T13:11:37.538Z,13.94
2022-09-15T13:14:08.442Z,14.07
2022-09-15T13:16:48.122Z,14.12
2022-09-15T13:19:41.235Z,14.13
2022-09-15T13:22:12.054Z,14.23
2022-09-15T13:24:43.088Z,14.27
2022-09-15T13:27:12.080Z,14.34
2022-09-15T13:29:49.828Z,14.37
2022-09-15T13:32:56.241Z,14.31
2022-09-15T13:35:42.906Z,14.25
2022-09-15T13:38:21.772Z,14.23
2022-09-15T13:41:23.587Z,14.35
2022-09-15T13:44:28.586Z,14.30
2022-09-15T13:47:18.094Z,14.23
2022-09-15T13:50:11.126Z,14.27
2022-09-15T13:52:57.164Z,14.44
2022-09-15T13:55:28.066Z,14.60
2022-09-15T14:01:03.299Z,14.40
2022-09-15T14:03:37.379Z,14.25
2022-09-15T14:06:30.343Z,14.16
2022-09-15T14:09:02.137Z,14.14
2022-09-15T14:11:33.625Z,14.14
2022-09-15T14:14:01.588Z,14.10
2022-09-15T14:16:36.845Z,14.08
2022-09-15T14:19:33.996Z,14.09
2022-09-15T14:22:18.852Z,14.14
2022-09-15T14:24:47.587Z,14.13
2022-09-15T14:27:35.901Z,14.21
2022-09-15T14:30:06.876Z,14.28
2022-09-15T14:32:44.015Z,14.24
2022-09-15T14:35:19.853Z,14.29
2022-09-15T14:37:50.826Z,14.37
2022-09-15T14:40:39.458Z,14.38
2022-09-15T14:43:32.314Z,14.34
2022-09-15T14:46:13.783Z,14.29
2022-09-15T14:48:41.669Z,14.32
2022-09-15T14:51:23.798Z,14.31
2022-09-15T14:53:55.596Z,14.25
2022-09-15T14:56:27.869Z,14.20
2022-09-15T14:59:04.877Z,14.17
2022-09-15T15:01:37.778Z,14.21
2022-09-15T15:04:25.630Z,14.23
2022-09-15T15:07:26.068Z,14.23
2022-09-15T15:09:57.924Z,14.24
2022-09-15T15:12:35.336Z,14.23
2022-09-15T15:15:04.948Z,14.21
2022-09-15T15:17:43.126Z,14.20
2022-09-15T15:20:10.673Z,14.19
2022-09-15T15:22:40.349Z,14.15
2022-09-15T15:25:41.779Z,14.08
2022-09-15T15:28:36.073Z,14.14
2022-09-15T15:31:16.465Z,14.15
2022-09-15T15:33:56.766Z,14.12
2022-09-15T15:36:28.894Z,14.06
2022-09-15T15:39:01.790Z,14.08
2022-09-15T15:41:35.976Z,14.08
2022-09-15T15:44:08.368Z,14.05
2022-09-15T15:46:53.964Z,14.08
2022-09-15T15:49:26.060Z,14.10
2022-09-15T15:51:55.369Z,14.06
2022-09-15T15:54:23.972Z,13.98
2022-09-15T15:56:52.249Z,13.91
2022-09-15T15:59:20.129Z,13.84
2022-09-15T16:01:51.581Z,13.81
2022-09-15T16:04:19.325Z,13.73
2022-09-15T16:06:47.688Z,13.72
2022-09-15T16:09:17.377Z,13.61
2022-09-15T16:11:45.360Z,13.60
2022-09-15T16:14:13.941Z,13.63
2022-09-15T16:16:41.941Z,13.64
2022-09-15T16:19:09.783Z,13.55
2022-09-15T16:21:40.220Z,13.51
2022-09-15T16:24:13.815Z,13.49
2022-09-15T16:26:42.814Z,13.42
2022-09-15T16:29:10.628Z,13.39
2022-09-15T16:31:39.217Z,13.35
2022-09-15T16:34:06.726Z,13.30
2022-09-15T16:36:36.409Z,13.27
2022-09-15T16:39:04.055Z,13.18
2022-09-15T16:41:34.795Z,13.04
2022-09-15T16:44:15.979Z,13.03
2022-09-15T16:46:43.545Z,13.01
2022-09-15T16:49:11.225Z,13.07
2022-09-15T16:51:38.948Z,13.03
2022-09-15T16:54:17.958Z,12.97
2022-09-15T16:56:46.302Z,12.91
2022-09-15T16:59:14.634Z,12.89
2022-09-15T17:01:42.174Z,12.87
2022-09-15T17:04:15.882Z,12.86
2022-09-15T17:06:43.889Z,12.85
2022-09-15T17:09:11.588Z,12.85
2022-09-15T17:11:39.855Z,12.86
2022-09-15T17:14:11.791Z,12.93
2022-09-15T17:16:39.809Z,12.88
2022-09-15T17:19:07.641Z,12.88
2022-09-15T17:21:35.250Z,12.88
2022-09-15T17:24:03.077Z,12.82
2022-09-15T17:26:31.775Z,12.70
2022-09-15T17:28:59.499Z,12.70
2022-09-15T17:31:28.017Z,12.75
2022-09-15T17:33:55.967Z,12.75
2022-09-15T17:36:24.079Z,12.73
2022-09-15T17:38:51.662Z,12.70
2022-09-15T17:41:21.602Z,12.67
2022-09-15T17:43:49.638Z,12.65
2022-09-15T17:46:17.287Z,12.59
2022-09-15T17:48:44.884Z,12.53
2022-09-15T17:51:17.178Z,12.51
2022-09-15T17:53:47.911Z,12.46
2022-09-15T17:56:15.588Z,12.42
2022-09-15T17:58:43.308Z,12.45
2022-09-15T18:01:13.401Z,12.36
2022-09-15T18:03:43.640Z,12.40
2022-09-15T18:06:11.724Z,12.38
2022-09-15T18:08:40.732Z,12.34
2022-09-15T18:11:10.722Z,12.34
2022-09-15T18:13:38.478Z,12.35
2022-09-15T18:16:10.986Z,12.29
2022-09-15T18:18:40.547Z,12.35
2022-09-15T18:21:15.531Z,12.28
2022-09-15T18:23:45.157Z,12.28
2022-09-15T18:26:12.784Z,12.26
2022-09-15T18:28:40.529Z,12.18
2022-09-15T18:31:12.610Z,12.18
2022-09-15T18:33:40.685Z,12.18
2022-09-15T18:36:08.465Z,12.11
2022-09-15T18:38:36.667Z,12.11
2022-09-15T18:41:10.476Z,12.06
2022-09-15T18:43:38.218Z,12.00
2022-09-15T18:46:15.839Z,11.94
2022-09-15T18:48:43.698Z,11.88
2022-09-15T18:51:16.286Z,11.94
2022-09-15T18:53:52.052Z,11.89
2022-09-15T18:56:21.658Z,11.85
2022-09-15T18:58:53.777Z,11.93
2022-09-15T19:01:22.571Z,11.98
2022-09-15T19:03:50.350Z,11.97
2022-09-15T19:06:18.021Z,11.94
2022-09-15T19:08:46.019Z,11.83
2022-09-15T19:11:13.844Z,11.82
2022-09-15T19:13:41.708Z,11.84
2022-09-15T19:16:09.816Z,11.83
2022-09-15T19:18:38.133Z,11.79
2022-09-15T19:21:11.321Z,11.83
2022-09-15T19:23:39.445Z,11.79
2022-09-15T19:26:10.086Z,11.74
2022-09-15T19:28:37.724Z,11.74
2022-09-15T19:31:05.956Z,11.62
2022-09-15T19:33:34.158Z,11.61
2022-09-15T19:36:24.130Z,11.69
2022-09-15T19:38:51.770Z,11.58
2022-09-15T19:41:19.278Z,11.70
2022-09-15T19:43:47.075Z,11.72
2022-09-15T19:46:21.306Z,11.75
2022-09-15T19:48:50.234Z,11.73
2022-09-15T19:51:18.415Z,11.80
2022-09-15T19:53:47.548Z,11.80
2022-09-15T19:56:19.422Z,11.75
2022-09-15T19:58:47.156Z,11.69
2022-09-15T20:01:16.014Z,11.71
2022-09-15T20:06:32.505Z,11.64
2022-09-15T20:09:00.891Z,11.63
2022-09-15T20:11:30.244Z,11.57
2022-09-15T20:13:57.960Z,11.57
2022-09-15T20:16:25.934Z,11.57
2022-09-15T20:18:54.882Z,11.65
2022-09-15T20:21:48.650Z,11.59
2022-09-15T20:24:16.932Z,11.66
2022-09-15T20:26:44.464Z,11.60
2022-09-15T20:29:12.282Z,11.59
2022-09-15T20:31:40.528Z,11.54
2022-09-15T20:34:08.323Z,11.54
2022-09-15T20:36:38.497Z,11.52
2022-09-15T20:39:13.309Z,11.58
2022-09-15T20:41:45.221Z,11.55
2022-09-15T20:44:13.694Z,11.55
2022-09-15T20:46:41.494Z,11.54
2022-09-15T20:49:13.029Z,11.59
2022-09-15T20:51:40.666Z,11.50
2022-09-15T20:54:08.132Z,11.42
2022-09-15T20:56:36.574Z,11.41
2022-09-15T20:59:04.857Z,11.34
2022-09-15T21:01:36.792Z,11.39
2022-09-15T21:04:06.411Z,11.40
2022-09-15T21:06:34.428Z,11.32
2022-09-15T21:09:03.325Z,11.27
2022-09-15T21:11:31.040Z,11.23
2022-09-15T21:13:59.030Z,11.26
2022-09-15T21:16:28.573Z,11.20
2022-09-15T21:18:57.765Z,11.23
2022-09-15T21:21:30.194Z,11.21
2022-09-15T21:24:01.305Z,11.14
2022-09-15T21:26:31.508Z,11.14
2022-09-15T21:28:59.630Z,11.14
2022-09-15T21:31:30.224Z,11.10
2022-09-15T21:33:59.233Z,11.06
2022-09-15T21:36:29.826Z,11.02
2022-09-15T21:38:59.497Z,11.09
2022-09-15T21:41:30.016Z,11.05
2022-09-15T21:43:59.148Z,11.01
2022-09-15T21:46:28.007Z,11.01
2022-09-15T21:48:58.557Z,10.91
2022-09-15T21:51:28.927Z,10.93
2022-09-15T21:53:58.496Z,10.88
2022-09-15T21:56:28.220Z,10.86
2022-09-15T21:58:55.780Z,10.87
2022-09-15T22:01:24.445Z,10.91
2022-09-15T22:03:57.195Z,10.91
2022-09-15T22:06:30.166Z,10.84
2022-09-15T22:08:59.314Z,10.81
2022-09-15T22:11:27.062Z,10.88
2022-09-15T22:13:54.596Z,10.84
2022-09-15T22:16:24.594Z,10.82
2022-09-15T22:18:52.903Z,10.75
2022-09-15T22:21:23.769Z,10.73
2022-09-15T22:23:53.783Z,10.76
2022-09-15T22:26:27.199Z,10.69
2022-09-15T22:28:56.127Z,10.71
2022-09-15T22:31:24.748Z,10.65
2022-09-15T22:33:53.053Z,10.65
2022-09-15T22:36:28.615Z,10.65
2022-09-15T22:39:04.723Z,10.57
2022-09-15T22:41:35.614Z,10.59
2022-09-15T22:44:04.054Z,10.53
2022-09-15T22:46:32.583Z,10.51
2022-09-15T22:49:00.467Z,10.55
2022-09-15T22:51:27.970Z,10.52
2022-09-15T22:53:57.257Z,10.53
2022-09-15T22:56:26.400Z,10.53
2022-09-15T22:58:56.285Z,10.56
2022-09-15T23:01:26.857Z,10.50
2022-09-15T23:03:59.948Z,10.47
2022-09-15T23:06:31.244Z,10.46
2022-09-15T23:09:01.116Z,10.45
2022-09-15T23:11:30.026Z,10.45
2022-09-15T23:13:57.844Z,10.44
2022-09-15T23:16:26.764Z,10.44
2022-09-15T23:18:54.762Z,10.43
2022-09-15T23:21:22.865Z,10.43
2022-09-15T23:23:53.020Z,10.45
2022-09-15T23:26:22.562Z,10.50
2022-09-15T23:28:50.406Z,10.39
2022-09-15T23:31:18.166Z,10.43
2022-09-15T23:33:46.476Z,10.36
2022-09-15T23:36:16.560Z,10.36
2022-09-15T23:38:45.444Z,10.42
2022-09-15T23:41:14.784Z,10.35
2022-09-15T23:43:42.358Z,10.26
2022-09-15T23:46:10.222Z,10.28
2022-09-15T23:48:38.103Z,10.28
2022-09-15T23:51:06.404Z,10.25
2022-09-15T23:53:34.296Z,10.16
2022-09-15T23:56:02.291Z,10.10
2022-09-15T23:58:30.230Z,10.18
